Time;durP1;ratioP1;P1;durP2;ratioP2;P2;SDS_P1;SDS_P2;PMS_P1;PMS_P2;Temp;Humidity;BMP_temperature;BMP_pressure;BME280_temperature;BME280_humidity;BME280_pressure;Samples;Min_cycle;Max_cycle;Signal;HPM_P1;HPM_P2
2023/02/06 00:01:44;;;;;;;159.60;73.90;;;;;;;-5.47;74.37;99182.23;108869;1251;100035;-73
2023/02/06 00:04:13;;;;;;;145.90;69.60;;;;;;;-5.47;74.35;99184.86;108896;1251;95647;-74
2023/02/06 00:06:41;;;;;;;144.70;71.50;;;;;;;-5.47;74.40;99192.20;108886;1251;96011;-73
2023/02/06 00:09:10;;;;;;;143.90;68.90;;;;;;;-5.46;74.41;99190.95;108611;1251;103683;-73
2023/02/06 00:11:38;;;;;;;150.50;71.10;;;;;;;-5.47;74.42;99182.40;108884;1250;101170;-74
2023/02/06 00:14:07;;;;;;;148.50;74.10;;;;;;;-5.48;74.42;99184.55;108658;1251;99849;-75
2023/02/06 00:16:35;;;;;;;150.10;71.40;;;;;;;-5.49;74.44;99191.75;108883;1251;95609;-74
2023/02/06 00:19:03;;;;;;;148.90;72.10;;;;;;;-5.50;74.43;99195.83;108974;1251;96114;-75
2023/02/06 00:21:32;;;;;;;142.40;70.30;;;;;;;-5.51;74.28;99190.80;108760;1251;103615;-75
2023/02/06 00:24:01;;;;;;;158.80;73.20;;;;;;;-5.52;74.21;99184.89;108879;1251;101217;-73
2023/02/06 00:26:30;;;;;;;167.70;75.50;;;;;;;-5.52;74.37;99186.30;108641;1251;100015;-74
2023/02/06 00:28:58;;;;;;;187.80;77.80;;;;;;;-5.53;74.43;99181.77;108838;1251;95563;-73
2023/02/06 00:31:26;;;;;;;168.00;76.60;;;;;;;-5.54;74.45;99186.91;108946;1251;96026;-73
2023/02/06 00:33:54;;;;;;;155.40;74.00;;;;;;;-5.55;74.55;99186.60;108857;1250;103577;-73
2023/02/06 00:36:25;;;;;;;149.10;74.40;;;;;;;-5.56;74.56;99181.05;108898;1251;101246;-75
2023/02/06 00:38:56;;;;;;;153.40;73.30;;;;;;;-5.57;74.50;99185.29;108862;1251;100105;-73
2023/02/06 00:41:24;;;;;;;149.50;72.90;;;;;;;-5.58;74.48;99185.86;108645;1251;95584;-75
2023/02/06 00:43:53;;;;;;;160.00;75.20;;;;;;;-5.58;74.50;99190.45;108949;1251;95998;-73
2023/02/06 00:46:24;;;;;;;161.20;75.30;;;;;;;-5.59;74.50;99192.73;108709;1251;103904;-74
2023/02/06 00:48:52;;;;;;;124.80;61.80;;;;;;;-5.58;74.52;99192.55;108888;1251;101413;-73
2023/02/06 00:51:20;;;;;;;155.10;79.10;;;;;;;-5.58;74.47;99186.59;108919;1251;100127;-74
2023/02/06 00:53:48;;;;;;;158.40;79.30;;;;;;;-5.57;74.64;99186.38;108842;1251;95588;-74
2023/02/06 00:56:16;;;;;;;168.90;76.50;;;;;;;-5.59;74.59;99182.04;108885;1251;96000;-74
2023/02/06 00:58:44;;;;;;;163.20;80.80;;;;;;;-5.60;74.53;99177.36;108901;1251;103578;-74
2023/02/06 01:01:12;;;;;;;164.70;77.10;;;;;;;-5.62;74.53;99172.38;108670;1251;101310;-74
2023/02/06 01:03:41;;;;;;;154.30;76.60;;;;;;;-5.67;74.56;99168.52;108859;1251;99703;-73
2023/02/06 01:06:11;;;;;;;155.90;78.00;;;;;;;-5.67;74.59;99171.86;108875;1251;95555;-74
2023/02/06 01:08:39;;;;;;;154.90;76.50;;;;;;;-5.67;74.56;99169.26;108933;1251;96074;-75
2023/02/06 01:11:12;;;;;;;158.60;78.90;;;;;;;-5.67;74.68;99171.21;108921;1251;103347;-73
2023/02/06 01:13:41;;;;;;;163.10;82.00;;;;;;;-5.68;74.61;99177.36;108861;1251;101511;-75
2023/02/06 01:16:11;;;;;;;159.80;82.80;;;;;;;-5.68;74.58;99172.80;108845;1251;100126;-74
2023/02/06 01:18:40;;;;;;;156.00;80.20;;;;;;;-5.68;74.76;99168.77;108878;1251;95555;-74
2023/02/06 01:21:14;;;;;;;150.90;79.00;;;;;;;-5.66;74.74;99170.10;108909;1251;96052;-73
2023/02/06 01:23:43;;;;;;;155.60;78.90;;;;;;;-5.65;74.86;99171.63;108776;1251;103425;-74
2023/02/06 01:26:16;;;;;;;148.60;77.20;;;;;;;-5.65;74.72;99174.76;108868;1251;109107;-73
2023/02/06 01:28:45;;;;;;;153.90;77.60;;;;;;;-5.64;74.95;99169.80;108877;1252;100020;-73
2023/02/06 01:31:25;;;;;;;158.30;80.50;;;;;;;-5.62;74.94;99166.73;108853;1251;95611;-74
2023/02/06 01:33:56;;;;;;;154.90;77.70;;;;;;;-5.62;74.90;99164.45;108850;1251;95994;-74
2023/02/06 01:36:25;;;;;;;155.80;78.10;;;;;;;-5.68;74.78;99159.65;108948;1251;103798;-73
2023/02/06 01:38:53;;;;;;;160.00;79.70;;;;;;;-5.72;74.82;99165.27;108861;1250;101414;-74
2023/02/06 01:41:23;;;;;;;164.80;79.50;;;;;;;-5.72;74.80;99168.08;108868;1251;100056;-74
2023/02/06 01:44:26;;;;;;;162.30;82.60;;;;;;;-5.71;75.01;99166.31;108750;1251;95806;-73
2023/02/06 01:46:56;;;;;;;156.40;80.10;;;;;;;-5.70;75.09;99157.66;108294;1257;96176;-73
2023/02/06 01:49:39;;;;;;;154.20;82.20;;;;;;;-5.68;75.05;99158.58;108175;1258;103296;-74
2023/02/06 01:52:13;;;;;;;147.20;78.60;;;;;;;-5.67;74.99;99160.85;108263;1259;101363;-73
2023/02/06 01:54:43;;;;;;;172.00;80.90;;;;;;;-5.68;75.10;99153.20;108260;1258;99438;-73
2023/02/06 01:57:13;;;;;;;166.60;81.70;;;;;;;-5.68;75.05;99149.49;108253;1258;95714;-74
2023/02/06 01:59:44;;;;;;;161.80;78.40;;;;;;;-5.67;75.08;99152.77;108273;1258;96939;-74
2023/02/06 02:02:14;;;;;;;151.90;77.50;;;;;;;-5.69;75.00;99150.39;108302;1258;103537;-73
2023/02/06 02:04:43;;;;;;;166.00;80.00;;;;;;;-5.69;75.13;99139.73;108290;1259;101498;-73
2023/02/06 02:07:20;;;;;;;163.20;79.70;;;;;;;-5.69;75.11;99138.33;108090;1259;107564;-75
2023/02/06 02:09:48;;;;;;;166.40;81.90;;;;;;;-5.69;75.06;99138.51;108279;1258;95644;-73
2023/02/06 02:12:16;;;;;;;163.60;78.20;;;;;;;-5.69;75.18;99134.64;108278;1259;96049;-74
2023/02/06 02:14:47;;;;;;;159.80;77.80;;;;;;;-5.69;75.11;99132.17;108308;1260;103469;-75
2023/02/06 02:17:33;;;;;;;156.50;78.10;;;;;;;-5.69;75.11;99131.47;108309;1259;101418;-74
2023/02/06 02:20:38;;;;;;;150.90;76.70;;;;;;;-5.70;75.10;99124.33;108254;1258;100046;-75
2023/02/06 02:23:21;;;;;;;151.00;76.80;;;;;;;-5.71;75.28;99119.98;108846;1251;95618;-74
2023/02/06 02:25:54;;;;;;;152.50;76.20;;;;;;;-5.71;75.14;99114.90;108893;1251;96438;-73
2023/02/06 02:29:00;;;;;;;151.20;74.60;;;;;;;-5.71;75.16;99106.48;108882;1251;103717;-74
2023/02/06 02:31:38;;;;;;;155.40;77.00;;;;;;;-5.72;75.24;99113.70;108926;1250;101878;-74
2023/02/06 02:34:28;;;;;;;152.20;76.30;;;;;;;-5.73;75.13;99117.96;108861;1251;100028;-73
2023/02/06 02:37:21;;;;;;;148.40;73.80;;;;;;;-5.76;75.02;99126.90;108792;1251;95650;-73
2023/02/06 02:39:57;;;;;;;143.40;71.30;;;;;;;-5.84;75.02;99126.73;108800;1251;96431;-74
2023/02/06 02:42:32;;;;;;;145.30;73.80;;;;;;;-5.90;75.14;99128.58;108774;1251;104809;-74
2023/02/06 02:45:13;;;;;;;143.30;73.40;;;;;;;-5.91;75.18;99127.54;108914;1251;101517;-73
2023/02/06 02:47:49;;;;;;;142.50;74.40;;;;;;;-5.91;75.11;99122.30;108833;1251;99880;-73
2023/02/06 02:50:18;;;;;;;152.30;77.10;;;;;;;-5.90;75.21;99121.73;108824;1251;95614;-74
2023/02/06 02:52:46;;;;;;;145.10;72.40;;;;;;;-5.89;75.29;99115.89;108875;1251;96078;-73
2023/02/06 02:55:21;;;;;;;144.70;73.20;;;;;;;-5.88;75.24;99103.91;108870;1250;103514;-74
2023/02/06 02:57:54;;;;;;;142.50;72.50;;;;;;;-5.87;75.15;99105.94;108870;1251;101325;-73
2023/02/06 03:00:25;;;;;;;147.50;74.60;;;;;;;-5.85;75.26;99097.47;108855;1251;99813;-74
2023/02/06 03:02:56;;;;;;;141.90;73.30;;;;;;;-5.84;75.17;99089.87;108845;1251;95613;-74
2023/02/06 03:05:26;;;;;;;145.80;73.40;;;;;;;-5.84;75.12;99090.39;108691;1252;95724;-74
2023/02/06 03:08:16;;;;;;;146.80;73.20;;;;;;;-5.84;75.10;99092.86;108863;1251;103822;-73
2023/02/06 03:11:05;;;;;;;150.60;73.90;;;;;;;-5.84;75.16;99093.71;108902;1251;102079;-73
2023/02/06 03:13:49;;;;;;;147.70;72.80;;;;;;;-5.83;75.23;99088.59;108879;1251;100055;-73
2023/02/06 03:16:40;;;;;;;145.00;71.70;;;;;;;-5.83;75.24;99089.16;108864;1251;95555;-73
2023/02/06 03:19:21;;;;;;;149.50;72.60;;;;;;;-5.84;75.18;99090.95;108842;1251;96319;-75
2023/02/06 03:21:50;;;;;;;143.90;72.50;;;;;;;-5.85;75.17;99094.84;108836;1251;103543;-74
2023/02/06 03:24:26;;;;;;;139.50;69.20;;;;;;;-5.85;75.13;99099.23;108704;1251;100360;-73
2023/02/06 03:27:01;;;;;;;137.10;66.60;;;;;;;-5.86;75.10;99097.00;108873;1251;99830;-72
2023/02/06 03:29:33;;;;;;;142.10;71.50;;;;;;;-5.87;75.13;99088.27;108885;1251;95608;-73
2023/02/06 03:32:07;;;;;;;;;;;;;;;-5.88;75.15;99081.48;108914;1251;95605;-73
2023/02/06 03:34:41;;;;;;;138.70;70.00;;;;;;;-5.89;75.13;99085.92;108886;1251;102574;-74
2023/02/06 03:37:10;;;;;;;147.00;77.40;;;;;;;-5.89;75.16;99084.69;108889;1251;100340;-74
2023/02/06 03:39:39;;;;;;;145.00;74.20;;;;;;;-5.90;75.26;99080.52;108875;1251;100028;-73
2023/02/06 03:42:11;;;;;;;138.50;69.70;;;;;;;-5.90;75.11;99076.31;108930;1251;95537;-75
2023/02/06 03:44:51;;;;;;;132.90;69.20;;;;;;;-5.89;75.06;99081.02;108554;1251;95728;-72
2023/02/06 03:47:22;;;;;;;137.30;72.20;;;;;;;-5.91;74.97;99084.42;108898;1251;103351;-72
2023/02/06 03:49:53;;;;;;;140.50;69.80;;;;;;;-5.95;74.89;99083.57;108634;1251;101431;-72
2023/02/06 03:52:25;;;;;;;136.30;68.80;;;;;;;-5.99;74.98;99080.77;108885;1251;100125;-72
2023/02/06 03:55:01;;;;;;;138.60;68.90;;;;;;;-5.99;74.99;99080.41;108811;1251;95577;-73
2023/02/06 03:57:31;;;;;;;151.20;71.70;;;;;;;-5.98;75.09;99079.51;108907;1251;96025;-73
2023/02/06 04:00:00;;;;;;;140.60;69.60;;;;;;;-5.99;75.06;99079.89;108882;1251;102114;-75
2023/02/06 04:02:29;;;;;;;140.50;70.70;;;;;;;-6.00;74.92;99079.42;108854;1251;100705;-73
2023/02/06 04:04:57;;;;;;;139.90;70.30;;;;;;;-6.00;74.95;99084.51;108842;1251;99875;-74
2023/02/06 04:07:28;;;;;;;131.50;67.00;;;;;;;-6.02;74.96;99086.34;108483;1252;96515;-73
2023/02/06 04:09:56;;;;;;;142.20;67.70;;;;;;;-6.03;74.94;99086.72;108804;1251;96032;-75
2023/02/06 04:12:25;;;;;;;136.20;67.50;;;;;;;-6.04;74.92;99089.93;108920;1250;103414;-73
2023/02/06 04:14:53;;;;;;;134.50;67.70;;;;;;;-6.04;74.87;99092.40;108887;1251;101011;-74
2023/02/06 04:17:21;;;;;;;138.90;69.30;;;;;;;-6.09;74.84;99092.61;108844;1251;100142;-74
2023/02/06 04:19:49;;;;;;;134.90;70.70;;;;;;;-6.14;75.00;99094.21;108843;1251;95567;-73
2023/02/06 04:22:18;;;;;;;133.20;68.60;;;;;;;-6.13;75.12;99098.95;108715;1251;96038;-75
2023/02/06 04:24:46;;;;;;;132.30;65.60;;;;;;;-6.13;75.12;99100.34;108691;1254;103400;-73
2023/02/06 04:27:15;;;;;;;137.90;66.90;;;;;;;-6.18;75.06;99098.79;108897;1251;101457;-73
2023/02/06 04:29:43;;;;;;;132.50;66.30;;;;;;;-6.21;75.10;99097.84;108825;1251;99996;-73
2023/02/06 04:32:11;;;;;;;132.70;65.20;;;;;;;-6.21;75.08;99103.10;108894;1251;95631;-73
2023/02/06 04:34:40;;;;;;;127.90;65.40;;;;;;;-6.20;75.00;99103.07;108842;1253;96010;-75
2023/02/06 04:37:11;;;;;;;133.00;67.60;;;;;;;-6.19;75.01;99102.33;108852;1250;103664;-74
2023/02/06 04:39:39;;;;;;;138.10;68.60;;;;;;;-6.21;75.11;99107.31;108788;1251;100950;-73
2023/02/06 04:42:07;;;;;;;137.00;67.70;;;;;;;-6.21;75.21;99109.08;108877;1251;100131;-73
2023/02/06 04:44:37;;;;;;;141.00;67.30;;;;;;;-6.20;75.27;99110.09;108847;1251;95768;-75
2023/02/06 04:47:05;;;;;;;143.10;69.10;;;;;;;-6.17;75.38;99108.41;108827;1251;96147;-73
2023/02/06 04:49:33;;;;;;;134.10;69.70;;;;;;;-6.14;75.31;99105.11;108759;1251;102812;-73
2023/02/06 04:52:01;;;;;;;149.60;71.40;;;;;;;-6.13;75.11;99102.58;108868;1251;101649;-74
2023/02/06 04:54:29;;;;;;;138.20;68.60;;;;;;;-6.14;75.12;99103.17;108892;1251;99951;-73
2023/02/06 04:56:57;;;;;;;132.20;68.00;;;;;;;-6.18;74.88;99099.65;108859;1251;95578;-73
2023/02/06 04:59:25;;;;;;;133.10;66.30;;;;;;;-6.22;74.70;99103.50;108821;1251;96004;-73
2023/02/06 05:01:54;;;;;;;133.40;67.00;;;;;;;-6.25;74.56;99100.84;108841;1251;103664;-74
2023/02/06 05:04:22;;;;;;;144.90;70.80;;;;;;;-6.29;74.47;99100.48;108923;1251;101499;-73
2023/02/06 05:06:50;;;;;;;134.20;66.80;;;;;;;-6.34;74.40;99101.76;108845;1251;100099;-75
2023/02/06 05:09:18;;;;;;;131.50;64.40;;;;;;;-6.38;74.42;99106.45;108835;1251;95518;-73
2023/02/06 05:11:46;;;;;;;124.10;64.20;;;;;;;-6.41;74.25;99116.77;108543;1251;96105;-73
2023/02/06 05:14:15;;;;;;;126.30;64.90;;;;;;;-6.47;74.19;99118.60;108923;1251;103699;-73
2023/02/06 05:16:43;;;;;;;132.90;64.90;;;;;;;-6.58;74.02;99116.59;108913;1250;101775;-75
2023/02/06 05:19:12;;;;;;;133.70;65.50;;;;;;;-6.64;74.09;99114.95;108872;1251;100088;-73
2023/02/06 05:21:40;;;;;;;130.90;65.60;;;;;;;-6.68;74.07;99115.44;108834;1251;95569;-73
2023/02/06 05:24:08;;;;;;;135.50;65.70;;;;;;;-6.70;73.92;99117.82;108884;1251;97075;-73
2023/02/06 05:26:36;;;;;;;141.50;68.10;;;;;;;-6.73;74.03;99124.60;108670;1251;103821;-74
2023/02/06 05:29:04;;;;;;;142.00;69.60;;;;;;;-6.76;74.06;99127.55;108877;1250;110188;-73
2023/02/06 05:31:32;;;;;;;133.70;65.60;;;;;;;-6.78;74.00;99127.79;108660;1251;100178;-73
2023/02/06 05:34:00;;;;;;;129.00;64.20;;;;;;;-6.80;74.18;99134.69;108675;1251;95593;-73
2023/02/06 05:36:28;;;;;;;146.40;73.60;;;;;;;-6.81;74.25;99134.57;108909;1251;96004;-73
2023/02/06 05:38:56;;;;;;;159.90;80.20;;;;;;;-6.82;74.31;99144.05;108802;1251;103636;-74
2023/02/06 05:41:25;;;;;;;175.00;88.10;;;;;;;-6.83;74.21;99147.78;108903;1250;100457;-74
2023/02/06 05:43:53;;;;;;;183.40;93.90;;;;;;;-6.84;74.15;99149.73;108853;1251;99988;-73
2023/02/06 05:46:21;;;;;;;187.30;99.20;;;;;;;-6.84;74.19;99146.39;108847;1251;95754;-74
2023/02/06 05:48:49;;;;;;;177.80;92.80;;;;;;;-6.84;74.20;99153.58;108844;1251;96037;-73
2023/02/06 05:51:17;;;;;;;164.80;89.30;;;;;;;-6.85;74.07;99160.09;108844;1251;103645;-74
2023/02/06 05:53:45;;;;;;;165.50;83.00;;;;;;;-6.86;74.23;99159.95;108681;1251;110453;-74
2023/02/06 05:56:13;;;;;;;173.00;86.10;;;;;;;-6.85;74.18;99162.21;108803;1254;99390;-73
2023/02/06 05:58:41;;;;;;;157.60;77.30;;;;;;;-6.86;74.17;99156.96;108882;1251;95829;-74
2023/02/06 06:01:11;;;;;;;171.00;88.40;;;;;;;-6.86;74.17;99154.02;108876;1251;97054;-73
2023/02/06 06:03:39;;;;;;;178.60;92.80;;;;;;;-6.89;74.16;99152.71;108719;1251;103121;-73
2023/02/06 06:06:08;;;;;;;165.90;85.20;;;;;;;-6.89;74.24;99153.10;108882;1251;101395;-72
2023/02/06 06:08:36;;;;;;;158.50;83.50;;;;;;;-6.88;74.24;99151.14;108803;1251;99700;-74
2023/02/06 06:11:04;;;;;;;149.70;78.40;;;;;;;-6.90;74.26;99150.85;108784;1254;95878;-73
2023/02/06 06:13:32;;;;;;;146.10;75.90;;;;;;;-6.94;74.06;99150.64;108848;1251;95962;-74
2023/02/06 06:16:00;;;;;;;147.40;77.30;;;;;;;-6.97;73.89;99147.77;108860;1251;103844;-74
2023/02/06 06:18:28;;;;;;;136.80;73.40;;;;;;;-6.99;73.95;99139.97;108838;1251;101339;-73
2023/02/06 06:20:57;;;;;;;141.10;73.50;;;;;;;-7.01;74.10;99142.17;108817;1251;99926;-72
2023/02/06 06:23:25;;;;;;;159.00;77.80;;;;;;;-7.01;74.14;99147.27;108871;1251;95553;-72
2023/02/06 06:25:53;;;;;;;138.10;70.90;;;;;;;-7.01;74.18;99151.60;108823;1251;95805;-74
2023/02/06 06:28:21;;;;;;;133.60;66.50;;;;;;;-7.00;74.32;99152.98;108899;1251;103737;-74
2023/02/06 06:30:49;;;;;;;127.70;68.00;;;;;;;-6.99;74.13;99151.37;108884;1251;109915;-73
2023/02/06 06:33:17;;;;;;;142.80;72.10;;;;;;;-6.99;74.17;99156.06;108679;1251;100046;-73
2023/02/06 06:35:46;;;;;;;182.60;91.40;;;;;;;-6.99;74.24;99156.77;108816;1251;95564;-74
2023/02/06 06:38:14;;;;;;;191.40;93.50;;;;;;;-6.98;74.34;99150.06;108925;1251;96047;-73
2023/02/06 06:40:42;;;;;;;180.40;91.60;;;;;;;-6.96;74.31;99145.47;108888;1251;103412;-74
2023/02/06 06:43:10;;;;;;;179.60;90.20;;;;;;;-6.95;74.16;99147.53;108820;1251;101261;-74
2023/02/06 06:45:38;;;;;;;196.70;103.90;;;;;;;-6.94;74.52;99152.75;108835;1251;108789;-72
2023/02/06 06:48:06;;;;;;;164.30;84.50;;;;;;;-6.92;74.61;99148.98;108792;1251;95681;-72
2023/02/06 06:50:34;;;;;;;139.80;72.00;;;;;;;-6.87;74.52;99146.01;108787;1251;96504;-72
2023/02/06 06:53:03;;;;;;;140.50;72.60;;;;;;;-6.85;74.48;99142.57;108854;1251;103391;-74
2023/02/06 06:55:31;;;;;;;145.50;91.40;;;;;;;-6.84;74.49;99145.52;108773;1251;101265;-72
2023/02/06 06:57:59;;;;;;;144.40;75.60;;;;;;;-6.81;74.42;99141.03;108824;1254;99927;-74
2023/02/06 07:00:27;;;;;;;175.10;86.50;;;;;;;-6.78;74.57;99136.54;108864;1251;95672;-74
2023/02/06 07:02:56;;;;;;;175.70;90.70;;;;;;;-6.75;74.56;99138.67;108683;1251;96548;-74
2023/02/06 07:05:24;;;;;;;171.00;89.10;;;;;;;-6.71;74.60;99136.77;108910;1251;103526;-72
2023/02/06 07:07:52;;;;;;;171.30;87.20;;;;;;;-6.68;74.73;99141.38;108619;1253;101492;-74
2023/02/06 07:10:20;;;;;;;170.20;87.40;;;;;;;-6.65;74.75;99142.30;108835;1251;99975;-73
2023/02/06 07:12:52;;;;;;;161.30;83.00;;;;;;;-6.62;74.50;99145.52;108859;1251;95639;-73
2023/02/06 07:15:24;;;;;;;126.10;62.50;;;;;;;-6.60;74.61;99147.16;108881;1251;95627;-73
2023/02/06 07:17:52;;;;;;;161.70;78.00;;;;;;;-6.58;74.74;99147.06;108880;1250;103720;-73
2023/02/06 07:20:21;;;;;;;164.90;79.90;;;;;;;-6.54;74.65;99152.73;108559;1254;101068;-73
2023/02/06 07:22:49;;;;;;;167.90;80.30;;;;;;;-6.52;74.64;99150.19;108787;1251;99961;-72
2023/02/06 07:25:19;;;;;;;167.80;82.20;;;;;;;-6.48;74.57;99149.48;108867;1251;95644;-74
2023/02/06 07:27:47;;;;;;;167.20;83.00;;;;;;;-6.43;74.63;99151.04;108869;1251;96077;-73
2023/02/06 07:30:15;;;;;;;172.70;82.30;;;;;;;-6.40;74.58;99151.92;108873;1255;103661;-72
2023/02/06 07:32:44;;;;;;;161.90;80.10;;;;;;;-6.36;74.59;99143.90;108630;1254;101376;-73
2023/02/06 07:35:14;;;;;;;164.90;83.20;;;;;;;-6.33;74.64;99140.27;108806;1255;100017;-73
2023/02/06 07:37:42;;;;;;;167.40;82.90;;;;;;;-6.29;74.64;99131.47;108832;1251;95814;-72
2023/02/06 07:40:11;;;;;;;188.00;90.70;;;;;;;-6.25;74.61;99129.71;108886;1251;96034;-72
2023/02/06 07:42:40;;;;;;;168.30;82.10;;;;;;;-6.20;74.60;99125.16;108814;1251;103352;-73
2023/02/06 07:45:08;;;;;;;145.60;74.80;;;;;;;-6.16;74.63;99128.83;108527;1251;176780;-73
2023/02/06 07:47:37;;;;;;;140.60;72.50;;;;;;;-6.12;74.66;99127.78;108818;1251;98749;-73
2023/02/06 07:50:05;;;;;;;148.60;68.80;;;;;;;-6.07;74.53;99131.27;108864;1251;95795;-72
2023/02/06 07:52:33;;;;;;;150.10;72.00;;;;;;;-6.03;74.47;99136.86;108855;1251;96076;-73
2023/02/06 07:55:01;;;;;;;148.10;72.60;;;;;;;-6.01;74.35;99135.02;108851;1256;103446;-73
2023/02/06 07:57:30;;;;;;;162.10;82.30;;;;;;;-6.00;74.51;99133.23;108873;1251;101046;-72
2023/02/06 07:59:58;;;;;;;149.40;75.30;;;;;;;-5.97;74.38;99140.47;108827;1251;99000;-73
2023/02/06 08:02:29;;;;;;;151.50;75.50;;;;;;;-5.93;74.35;99144.87;108844;1251;95527;-73
2023/02/06 08:04:57;;;;;;;123.10;59.90;;;;;;;-5.90;74.36;99148.01;108805;1254;95683;-73
2023/02/06 08:07:25;;;;;;;154.40;77.10;;;;;;;-5.91;74.45;99148.96;108851;1255;102601;-74
2023/02/06 08:09:54;;;;;;;139.90;68.90;;;;;;;-5.86;74.42;99149.79;108866;1251;101274;-72
2023/02/06 08:12:22;;;;;;;125.10;62.60;;;;;;;-5.79;74.43;99150.13;108855;1251;99924;-73
2023/02/06 08:14:50;;;;;;;118.50;60.40;;;;;;;-5.75;74.31;99144.02;108827;1251;95830;-73
2023/02/06 08:17:20;;;;;;;119.50;59.00;;;;;;;-5.72;74.24;99142.84;108856;1251;96277;-73
2023/02/06 08:19:49;;;;;;;115.20;60.10;;;;;;;-5.68;74.25;99139.32;108934;1251;103521;-73
2023/02/06 08:22:17;;;;;;;146.80;73.70;;;;;;;-5.62;74.31;99136.60;108692;1251;102534;-73
2023/02/06 08:24:45;;;;;;;155.10;76.30;;;;;;;-5.56;74.14;99133.32;108846;1251;97630;-72
2023/02/06 08:27:13;;;;;;;144.90;71.20;;;;;;;-5.52;74.09;99133.13;108832;1251;95634;-73
2023/02/06 08:29:42;;;;;;;130.20;65.90;;;;;;;-5.47;74.17;99127.30;108888;1251;96013;-73
2023/02/06 08:32:10;;;;;;;131.60;66.60;;;;;;;-5.43;74.11;99125.03;108854;1251;103501;-72
2023/02/06 08:34:40;;;;;;;131.70;64.20;;;;;;;-5.40;74.13;99123.45;108879;1251;110743;-73
2023/02/06 08:37:08;;;;;;;117.60;59.10;;;;;;;-5.36;73.99;99125.06;108660;1251;108777;-73
2023/02/06 08:39:37;;;;;;;120.80;58.80;;;;;;;-5.32;74.14;99122.08;108886;1251;95579;-73
2023/02/06 08:42:05;;;;;;;120.70;59.00;;;;;;;-5.28;74.08;99120.27;108708;1251;96030;-73
2023/02/06 08:44:33;;;;;;;121.00;57.90;;;;;;;-5.24;73.87;99121.51;108861;1251;103190;-73
2023/02/06 08:47:01;;;;;;;120.70;58.60;;;;;;;-5.22;73.86;99124.40;108881;1251;100665;-73
2023/02/06 08:49:29;;;;;;;141.30;65.40;;;;;;;-5.16;73.97;99124.97;108842;1251;100085;-74
2023/02/06 08:51:59;;;;;;;123.50;61.00;;;;;;;-5.12;73.80;99126.02;108880;1255;95826;-73
2023/02/06 08:54:27;;;;;;;137.00;65.10;;;;;;;-5.13;73.70;99122.36;108618;1254;96944;-73
2023/02/06 08:56:57;;;;;;;133.30;63.70;;;;;;;-5.10;73.85;99125.02;108611;1252;103619;-73
2023/02/06 08:59:28;;;;;;;134.30;65.10;;;;;;;-5.02;73.81;99122.58;108855;1253;101713;-73
2023/02/06 09:01:56;;;;;;;132.70;66.70;;;;;;;-4.97;73.63;99122.30;108827;1251;99749;-73
2023/02/06 09:04:24;;;;;;;123.10;63.30;;;;;;;-4.91;73.60;99123.61;108800;1251;95860;-73
2023/02/06 09:06:52;;;;;;;139.50;67.20;;;;;;;-4.88;73.67;99119.95;108850;1251;96093;-72
2023/02/06 09:09:20;;;;;;;130.50;63.90;;;;;;;-4.89;73.41;99121.23;108613;1251;103560;-72
2023/02/06 09:11:48;;;;;;;130.80;64.70;;;;;;;-4.91;73.40;99119.55;108833;1254;101293;-72
2023/02/06 09:14:18;;;;;;;137.50;67.00;;;;;;;-4.88;73.60;99116.43;108750;1254;98994;-73
2023/02/06 09:16:46;;;;;;;140.80;68.10;;;;;;;-4.78;73.69;99113.85;108775;1253;95568;-72
2023/02/06 09:19:14;;;;;;;137.80;66.20;;;;;;;-4.69;73.78;99111.98;108817;1254;95853;-73
2023/02/06 09:21:43;;;;;;;128.20;65.50;;;;;;;-4.63;73.55;99113.13;108613;1254;102572;-73
2023/02/06 09:24:11;;;;;;;127.70;65.40;;;;;;;-4.57;73.52;99111.41;108851;1251;101641;-74
2023/02/06 09:26:42;;;;;;;129.10;64.90;;;;;;;-4.49;73.37;99109.78;108819;1250;99661;-73
2023/02/06 09:29:12;;;;;;;133.30;65.30;;;;;;;-4.47;73.28;99105.09;108794;1252;95541;-74
2023/02/06 09:31:42;;;;;;;132.70;63.80;;;;;;;-4.49;72.95;99107.11;108631;1252;96085;-73
2023/02/06 09:34:12;;;;;;;117.80;61.90;;;;;;;-4.51;72.91;99108.63;108775;1252;103137;-73
2023/02/06 09:36:41;;;;;;;122.10;61.50;;;;;;;-4.53;72.84;99108.41;108637;1251;100391;-73
2023/02/06 09:39:09;;;;;;;120.20;61.60;;;;;;;-4.55;72.80;99107.96;108855;1251;99958;-74
2023/02/06 09:41:43;;;;;;;122.90;64.40;;;;;;;-4.51;73.14;99110.06;108822;1251;95582;-72
2023/02/06 09:44:21;;;;;;;113.60;59.60;;;;;;;-4.47;73.05;99111.24;108830;1251;96025;-72
2023/02/06 09:46:59;;;;;;;116.00;59.80;;;;;;;-4.44;73.14;99107.42;108903;1251;103563;-73
2023/02/06 09:49:41;;;;;;;120.80;63.30;;;;;;;-4.41;73.10;99109.52;108889;1251;100686;-75
2023/02/06 09:52:35;;;;;;;194.80;86.90;;;;;;;-4.29;73.29;99110.68;108869;1251;99861;-74
2023/02/06 09:55:26;;;;;;;223.60;96.70;;;;;;;-4.14;73.30;99112.02;108824;1251;95772;-75
2023/02/06 09:58:05;;;;;;;114.40;53.40;;;;;;;-4.02;73.20;99111.06;108826;1251;97213;-78
2023/02/06 10:01:05;;;;;;;140.60;69.80;;;;;;;-4.03;72.99;99115.14;108853;1250;103522;-75
2023/02/06 10:04:20;;;;;;;117.90;58.10;;;;;;;-3.98;73.10;99115.93;108695;1251;101582;-75
2023/02/06 10:07:32;;;;;;;96.90;48.60;;;;;;;-3.93;72.70;99116.21;108864;1251;99911;-76
2023/02/06 10:10:38;;;;;;;85.80;43.20;;;;;;;-3.93;72.52;99113.39;108186;1259;95712;-76
2023/02/06 10:13:19;;;;;;;85.70;40.00;;;;;;;-3.89;72.36;99116.55;107784;1267;96131;-77
2023/02/06 10:15:53;;;;;;;91.80;44.00;;;;;;;-3.88;72.27;99116.33;107753;1267;103966;-76
2023/02/06 10:18:49;;;;;;;43.40;25.00;;;;;;;-3.84;72.19;99115.92;107782;1266;101311;-74
2023/02/06 10:21:32;;;;;;;75.50;36.00;;;;;;;-3.81;72.09;99113.64;107590;1267;99897;-75
2023/02/06 10:24:11;;;;;;;70.90;35.10;;;;;;;-3.78;72.12;99114.91;107772;1267;95996;-75
2023/02/06 10:26:42;;;;;;;67.40;34.40;;;;;;;-3.73;72.17;99110.93;107804;1267;96702;-74
2023/02/06 10:29:27;;;;;;;73.30;37.20;;;;;;;-3.69;71.97;99112.81;107806;1267;103314;-74
2023/02/06 10:32:12;;;;;;;71.50;34.60;;;;;;;-3.64;71.91;99115.21;107770;1267;101541;-75
2023/02/06 10:35:02;;;;;;;42.80;21.60;;;;;;;-3.60;71.54;99115.35;107209;1270;99010;-75
2023/02/06 10:38:04;;;;;;;33.40;18.40;;;;;;;-3.59;71.17;99115.65;107472;1269;96089;-74
2023/02/06 10:40:38;;;;;;;29.00;17.50;;;;;;;-3.54;71.06;99120.13;107492;1270;95913;-76
2023/02/06 10:43:40;;;;;;;31.10;17.50;;;;;;;-3.53;71.00;99122.73;107478;1270;102457;-73
2023/02/06 10:46:27;;;;;;;29.50;17.30;;;;;;;-3.53;70.89;99125.37;108105;1264;101576;-76
2023/02/06 10:49:10;;;;;;;33.30;18.60;;;;;;;-3.55;70.66;99121.92;108082;1264;99552;-75
2023/02/06 10:51:42;;;;;;;40.70;22.30;;;;;;;-3.53;70.50;99122.21;108518;1257;95635;-76
2023/02/06 10:54:25;;;;;;;27.30;14.40;;;;;;;-3.50;70.55;99123.60;108555;1257;95698;-74
2023/02/06 10:56:57;;;;;;;51.70;26.00;;;;;;;-3.47;70.60;99120.07;108540;1255;102304;-74
2023/02/06 10:59:41;;;;;;;37.60;20.80;;;;;;;-3.43;70.61;99121.64;108288;1257;101225;-76
2023/02/06 11:02:23;;;;;;;30.10;16.10;;;;;;;-3.37;70.73;99123.38;108542;1256;99866;-75
2023/02/06 11:04:55;;;;;;;;;;;;;;;-3.29;70.59;99126.33;108536;1256;96387;-74
2023/02/06 11:07:48;;;;;;;40.30;20.00;;;;;;;-3.30;70.58;99124.98;108867;1251;95704;-74
2023/02/06 11:10:20;;;;;;;26.70;13.80;;;;;;;-3.30;70.57;99124.08;108195;1259;102056;-76
2023/02/06 11:13:21;;;;;;;20.70;11.50;;;;;;;-3.29;70.53;99125.61;108226;1259;101044;-75
2023/02/06 11:15:57;;;;;;;26.70;13.80;;;;;;;-3.26;70.40;99130.40;107652;1267;99925;-76
2023/02/06 11:18:39;;;;;;;22.20;13.40;;;;;;;-3.27;70.25;99132.58;107794;1266;95665;-75
2023/02/06 11:21:09;;;;;;;25.00;13.20;;;;;;;-3.31;70.18;99130.45;107400;1267;96150;-76
2023/02/06 11:23:38;;;;;;;23.70;14.30;;;;;;;-3.32;70.38;99125.41;107815;1266;103499;-75